createdAt,value
2018-09-20T00:00:15.416Z,99.30
2018-09-20T00:02:43.744Z,99.40
2018-09-20T00:05:12.103Z,99.40
2018-09-20T00:07:40.424Z,99.50
2018-09-20T00:10:08.817Z,99.60
2018-09-20T00:12:37.145Z,99.60
2018-09-20T00:15:05.622Z,99.80
2018-09-20T00:17:33.964Z,99.60
2018-09-20T00:20:02.461Z,99.60
2018-09-20T00:22:30.785Z,99.60
2018-09-20T00:24:59.148Z,99.70
2018-09-20T00:27:27.503Z,99.60
2018-09-20T00:29:55.860Z,99.60
2018-09-20T00:32:24.189Z,99.60
2018-09-20T00:34:52.616Z,99.70
2018-09-20T00:37:21.038Z,99.70
2018-09-20T00:39:49.388Z,99.80
2018-09-20T00:42:17.728Z,99.80
2018-09-20T00:44:46.084Z,99.90
2018-09-20T00:47:14.407Z,99.80
2018-09-20T00:49:42.787Z,99.90
2018-09-20T00:52:11.113Z,99.80
2018-09-20T00:54:39.471Z,99.90
2018-09-20T00:57:07.822Z,99.90
2018-09-20T00:59:36.200Z,99.90
2018-09-20T01:02:04.780Z,99.90
2018-09-20T01:04:33.395Z,99.90
2018-09-20T01:07:01.741Z,99.90
2018-09-20T01:09:30.124Z,99.90
2018-09-20T01:11:58.464Z,99.90
2018-09-20T01:14:26.825Z,99.90
2018-09-20T01:16:55.145Z,99.90
2018-09-20T01:19:23.522Z,99.90
2018-09-20T01:21:51.897Z,99.90
2018-09-20T01:24:20.252Z,99.90
2018-09-20T01:26:48.577Z,99.90
2018-09-20T01:29:16.905Z,99.90
2018-09-20T01:31:45.273Z,99.90
2018-09-20T01:34:13.604Z,99.90
2018-09-20T01:36:41.964Z,99.90
2018-09-20T01:39:12.521Z,99.90
2018-09-20T01:41:40.932Z,99.90
2018-09-20T01:44:09.267Z,99.90
2018-09-20T01:46:37.636Z,99.90
2018-09-20T01:49:06.673Z,99.90
2018-09-20T01:51:35.073Z,99.90
2018-09-20T01:54:03.515Z,99.90
2018-09-20T01:56:31.899Z,99.90
2018-09-20T01:59:00.263Z,99.90
2018-09-20T02:01:28.652Z,99.90
2018-09-20T02:03:56.992Z,99.90
2018-09-20T02:06:25.412Z,99.90
2018-09-20T02:08:53.743Z,99.90
2018-09-20T02:11:22.104Z,99.90
2018-09-20T02:13:50.430Z,99.90
2018-09-20T02:16:18.796Z,99.90
2018-09-20T02:18:47.152Z,99.90
2018-09-20T02:21:15.591Z,99.90
2018-09-20T02:23:43.926Z,99.90
2018-09-20T02:26:12.288Z,99.90
2018-09-20T02:28:40.613Z,99.90
2018-09-20T02:31:08.968Z,99.90
2018-09-20T02:33:37.292Z,99.90
2018-09-20T02:36:05.650Z,99.90
2018-09-20T02:38:34.004Z,99.90
2018-09-20T02:41:02.360Z,99.90
2018-09-20T02:43:30.683Z,99.90
2018-09-20T02:45:59.081Z,99.90
2018-09-20T02:48:27.404Z,99.90
2018-09-20T02:50:55.761Z,99.90
2018-09-20T02:53:24.086Z,99.90
2018-09-20T02:55:52.442Z,99.90
2018-09-20T02:58:20.764Z,99.90
2018-09-20T03:00:49.313Z,99.90
2018-09-20T03:03:17.640Z,99.90
2018-09-20T03:05:46.067Z,99.90
2018-09-20T03:08:14.404Z,99.90
2018-09-20T03:10:42.808Z,99.90
2018-09-20T03:13:11.145Z,99.90
2018-09-20T03:15:39.496Z,99.90
2018-09-20T03:18:07.827Z,99.90
2018-09-20T03:20:36.188Z,99.90
2018-09-20T03:23:04.532Z,99.90
2018-09-20T03:25:32.872Z,99.90
2018-09-20T03:28:01.228Z,99.90
2018-09-20T03:30:29.657Z,99.90
2018-09-20T03:32:57.960Z,99.90
2018-09-20T03:35:26.313Z,99.90
2018-09-20T03:37:54.683Z,99.90
2018-09-20T03:40:23.033Z,99.90
2018-09-20T03:42:51.400Z,99.90
2018-09-20T03:45:19.785Z,99.90
2018-09-20T03:47:48.145Z,99.90
2018-09-20T03:50:16.469Z,99.90
2018-09-20T03:52:44.812Z,99.90
2018-09-20T03:55:13.148Z,99.90
2018-09-20T03:57:41.508Z,99.90
2018-09-20T04:00:09.824Z,99.90
2018-09-20T04:02:38.180Z,99.90
2018-09-20T04:05:06.514Z,99.90
2018-09-20T04:07:34.878Z,99.90
2018-09-20T04:10:03.272Z,99.90
2018-09-20T04:12:31.712Z,99.90
2018-09-20T04:15:00.095Z,99.90
2018-09-20T04:17:28.469Z,99.90
2018-09-20T04:19:56.825Z,99.90
2018-09-20T04:22:25.616Z,99.90
2018-09-20T04:24:53.946Z,99.90
2018-09-20T04:27:22.355Z,99.90
2018-09-20T04:29:50.700Z,99.90
2018-09-20T04:32:20.091Z,99.90
2018-09-20T04:34:48.438Z,99.90
2018-09-20T04:37:16.820Z,99.90
2018-09-20T04:39:45.252Z,99.90
2018-09-20T04:42:13.631Z,99.90
2018-09-20T04:44:42.003Z,99.90
2018-09-20T04:47:10.440Z,99.90
2018-09-20T04:49:38.808Z,99.90
2018-09-20T04:52:07.301Z,99.90
2018-09-20T04:54:35.645Z,99.90
2018-09-20T04:57:05.724Z,99.90
2018-09-20T04:59:34.157Z,99.90
2018-09-20T05:02:02.601Z,99.90
2018-09-20T05:04:30.939Z,99.90
2018-09-20T05:06:59.338Z,99.90
2018-09-20T05:09:27.752Z,99.90
2018-09-20T05:11:56.102Z,99.90
2018-09-20T05:14:24.453Z,99.90
2018-09-20T05:16:52.781Z,99.90
2018-09-20T05:19:21.165Z,99.90
2018-09-20T05:21:49.495Z,99.90
2018-09-20T05:24:17.897Z,99.90
2018-09-20T05:26:46.223Z,99.90
2018-09-20T05:29:14.591Z,99.90
2018-09-20T05:31:42.920Z,99.90
2018-09-20T05:34:11.292Z,99.90
2018-09-20T05:36:39.634Z,99.90
2018-09-20T05:39:09.216Z,99.90
2018-09-20T05:41:37.548Z,99.90
2018-09-20T05:44:05.941Z,99.90
2018-09-20T05:46:34.292Z,99.90
2018-09-20T05:49:02.932Z,99.90
2018-09-20T05:51:31.295Z,99.90
2018-09-20T05:53:59.658Z,99.90
2018-09-20T05:56:28.044Z,99.90
2018-09-20T05:58:56.415Z,99.90
2018-09-20T06:01:24.739Z,99.90
2018-09-20T06:03:53.094Z,99.90
2018-09-20T06:06:21.428Z,99.90
2018-09-20T06:08:49.872Z,99.90
2018-09-20T06:11:18.209Z,99.90
2018-09-20T06:13:46.589Z,99.90
2018-09-20T06:16:14.930Z,99.90
2018-09-20T06:18:43.352Z,99.90
2018-09-20T06:21:11.680Z,99.90
2018-09-20T06:23:40.047Z,99.90
2018-09-20T06:26:08.417Z,99.90
2018-09-20T06:28:36.805Z,99.90
2018-09-20T06:31:05.123Z,99.90
2018-09-20T06:33:33.503Z,99.90
2018-09-20T06:36:01.872Z,99.90
2018-09-20T06:38:30.244Z,99.90
2018-09-20T06:40:58.618Z,99.90
2018-09-20T06:43:27.002Z,99.90
2018-09-20T06:45:55.509Z,99.90
2018-09-20T06:48:23.875Z,99.90
2018-09-20T06:50:52.300Z,99.90
2018-09-20T06:53:20.672Z,99.90
2018-09-20T06:55:49.020Z,99.90
2018-09-20T06:58:17.409Z,99.90
2018-09-20T07:00:45.752Z,99.90
2018-09-20T07:03:14.154Z,99.90
2018-09-20T07:05:42.497Z,99.90
2018-09-20T07:08:10.872Z,99.90
2018-09-20T07:10:39.213Z,99.90
2018-09-20T07:13:07.560Z,99.90
2018-09-20T07:15:35.935Z,99.90
2018-09-20T07:18:04.272Z,99.90
2018-09-20T07:20:32.700Z,99.90
2018-09-20T07:23:01.137Z,99.90
2018-09-20T07:25:29.557Z,99.90
2018-09-20T07:27:57.877Z,99.90
2018-09-20T07:30:26.256Z,99.90
2018-09-20T07:32:54.662Z,99.90
2018-09-20T07:35:23.000Z,99.90
2018-09-20T07:37:51.344Z,99.90
2018-09-20T07:40:19.696Z,99.90
2018-09-20T07:42:48.044Z,99.90
2018-09-20T07:45:16.451Z,99.90
2018-09-20T07:47:44.783Z,99.80
2018-09-20T07:50:13.151Z,99.50
2018-09-20T07:52:41.486Z,99.10
2018-09-20T07:55:09.883Z,98.80
2018-09-20T07:57:38.224Z,98.70
2018-09-20T08:00:06.660Z,98.40
2018-09-20T08:02:35.036Z,98.50
2018-09-20T08:05:03.416Z,98.10
2018-09-20T08:07:31.753Z,97.70
2018-09-20T08:10:00.131Z,97.40
2018-09-20T08:12:28.469Z,96.50
2018-09-20T08:14:56.864Z,96.90
2018-09-20T08:17:25.213Z,96.20
2018-09-20T08:19:53.648Z,95.90
2018-09-20T08:22:21.996Z,95.80
2018-09-20T08:24:50.483Z,95.40
2018-09-20T08:27:18.827Z,94.60
2018-09-20T08:29:47.224Z,94.40
2018-09-20T08:32:15.574Z,93.80
2018-09-20T08:34:43.960Z,93.30
2018-09-20T08:37:12.373Z,93.80
2018-09-20T08:39:40.712Z,92.40
2018-09-20T08:42:09.064Z,92.30
2018-09-20T08:44:37.468Z,91.70
2018-09-20T08:47:05.817Z,91.30
2018-09-20T08:49:34.208Z,90.90
2018-09-20T08:52:02.532Z,90.70
2018-09-20T08:54:30.934Z,90.40
2018-09-20T08:56:59.420Z,90.20
2018-09-20T08:59:27.639Z,90.20
2018-09-20T09:01:55.964Z,90.00
2018-09-20T09:04:24.383Z,89.70
2018-09-20T09:06:52.728Z,88.70
2018-09-20T09:09:21.097Z,88.30
2018-09-20T09:11:49.511Z,86.50
2018-09-20T09:14:17.838Z,86.60
2018-09-20T09:16:46.210Z,87.10
2018-09-20T09:19:14.549Z,86.50
2018-09-20T09:21:42.918Z,86.10
2018-09-20T09:24:11.355Z,86.30
2018-09-20T09:26:39.943Z,84.80
2018-09-20T09:29:08.285Z,84.80
2018-09-20T09:31:36.644Z,83.60
2018-09-20T09:34:04.997Z,83.90
2018-09-20T09:36:33.364Z,83.50
2018-09-20T09:39:01.725Z,85.10
2018-09-20T09:41:30.097Z,84.80
2018-09-20T09:43:58.424Z,84.00
2018-09-20T09:46:26.783Z,83.40
2018-09-20T09:48:55.125Z,83.90
2018-09-20T09:51:23.500Z,82.30
2018-09-20T09:53:51.856Z,81.10
2018-09-20T09:56:20.233Z,80.30
2018-09-20T09:58:48.824Z,80.30
2018-09-20T10:01:17.204Z,80.80
2018-09-20T10:03:45.549Z,80.40
2018-09-20T10:06:13.918Z,79.40
2018-09-20T10:08:42.417Z,79.70
2018-09-20T10:11:10.780Z,79.20
2018-09-20T10:13:39.135Z,78.40
2018-09-20T10:16:07.524Z,78.40
2018-09-20T10:18:35.863Z,78.30
2018-09-20T10:21:04.237Z,77.40
2018-09-20T10:23:32.603Z,76.60
2018-09-20T10:26:00.992Z,77.00
2018-09-20T10:28:29.340Z,77.80
2018-09-20T10:30:57.876Z,75.30
2018-09-20T10:33:26.217Z,75.40
2018-09-20T10:35:54.647Z,74.50
2018-09-20T10:38:23.012Z,74.40
2018-09-20T10:40:51.400Z,74.90
2018-09-20T10:43:19.727Z,74.80
2018-09-20T10:45:48.161Z,73.00
2018-09-20T10:48:16.496Z,73.20
2018-09-20T10:50:44.825Z,73.30
2018-09-20T10:53:13.208Z,72.60
2018-09-20T10:55:41.548Z,72.50
2018-09-20T10:58:09.928Z,70.50
2018-09-20T11:00:38.322Z,71.00
2018-09-20T11:03:06.821Z,71.60
2018-09-20T11:05:35.163Z,71.20
2018-09-20T11:08:03.588Z,71.70
2018-09-20T11:10:31.999Z,69.50
2018-09-20T11:13:00.337Z,69.20
2018-09-20T11:15:28.648Z,68.40
2018-09-20T11:17:57.008Z,68.90
2018-09-20T11:20:25.327Z,68.00
2018-09-20T11:22:53.691Z,67.10
2018-09-20T11:25:22.028Z,66.50
2018-09-20T11:27:50.391Z,66.00
2018-09-20T11:30:18.730Z,64.80
2018-09-20T11:32:47.113Z,65.70
2018-09-20T11:35:15.455Z,63.90
2018-09-20T11:37:43.904Z,65.10
2018-09-20T11:40:12.232Z,65.20
2018-09-20T11:42:40.596Z,64.00
2018-09-20T11:45:08.925Z,64.50
2018-09-20T11:47:37.304Z,63.10
2018-09-20T11:50:06.707Z,62.40
2018-09-20T11:52:35.092Z,63.80
2018-09-20T11:55:03.496Z,63.90
2018-09-20T11:57:31.893Z,61.40
2018-09-20T12:00:00.227Z,63.00
2018-09-20T12:02:28.600Z,63.60
2018-09-20T12:04:56.933Z,63.80
2018-09-20T12:07:25.356Z,62.70
2018-09-20T12:09:53.704Z,61.60
2018-09-20T12:12:22.263Z,60.80
2018-09-20T12:14:50.720Z,60.90
2018-09-20T12:17:19.092Z,60.80
2018-09-20T12:19:47.473Z,58.80
2018-09-20T12:22:15.847Z,58.70
2018-09-20T12:24:44.183Z,56.70
2018-09-20T12:27:12.564Z,57.00
2018-09-20T12:29:40.904Z,58.70
2018-09-20T12:32:09.355Z,59.20
2018-09-20T12:34:37.659Z,59.30
2018-09-20T12:37:06.274Z,58.70
2018-09-20T12:39:34.651Z,58.40
2018-09-20T12:42:03.040Z,58.60
2018-09-20T12:44:31.414Z,58.50
2018-09-20T12:46:59.736Z,60.00
2018-09-20T12:49:28.105Z,59.00
2018-09-20T12:51:56.432Z,58.60
2018-09-20T12:54:24.900Z,58.20
2018-09-20T12:56:53.229Z,59.30
2018-09-20T12:59:21.596Z,58.60
2018-09-20T13:01:49.912Z,57.70
2018-09-20T13:04:18.285Z,58.60
2018-09-20T13:06:46.606Z,57.60
2018-09-20T13:09:14.984Z,56.70
2018-09-20T13:11:43.317Z,56.40
2018-09-20T13:14:11.684Z,56.10
2018-09-20T13:16:40.015Z,57.20
2018-09-20T13:19:08.388Z,57.70
2018-09-20T13:21:36.708Z,57.20
2018-09-20T13:24:05.098Z,55.90
2018-09-20T13:26:33.425Z,55.80
2018-09-20T13:29:01.818Z,55.30
